Time;durP1;ratioP1;P1;durP2;ratioP2;P2;SDS_P1;SDS_P2;PMS_P1;PMS_P2;Temp;Humidity;BMP_temperature;BMP_pressure;BME280_temperature;BME280_humidity;BME280_pressure;Samples;Min_cycle;Max_cycle;Signal;HPM_P1;HPM_P2
2023/05/07 00:00:59;;;;;;;4.35;2.20;;;;;;;20.17;53.83;101538.44;4964577;28;20391;-66
2023/05/07 00:03:24;;;;;;;4.20;2.50;;;;;;;20.18;53.69;101539.25;4956784;28;20369;-66
2023/05/07 00:05:50;;;;;;;3.58;2.17;;;;;;;20.19;53.64;101544.44;4946931;28;20519;-67
2023/05/07 00:08:15;;;;;;;4.15;2.40;;;;;;;20.19;53.71;101540.97;4976009;28;20677;-67
2023/05/07 00:10:40;;;;;;;4.47;2.20;;;;;;;20.19;53.65;101539.16;4945363;28;20035;-66
2023/05/07 00:13:06;;;;;;;4.40;2.60;;;;;;;20.17;53.66;101534.91;4953920;28;21079;-67
2023/05/07 00:15:31;;;;;;;3.70;2.22;;;;;;;20.17;53.64;101529.63;4945366;28;20077;-67
2023/05/07 00:17:58;;;;;;;4.00;2.25;;;;;;;20.17;53.59;101532.28;4962098;28;20043;-67
2023/05/07 00:20:23;;;;;;;4.32;2.25;;;;;;;20.14;53.47;101521.94;4946991;28;20495;-66
2023/05/07 00:22:48;;;;;;;4.65;2.20;;;;;;;20.13;53.77;101521.09;4963937;28;20043;-66
2023/05/07 00:25:14;;;;;;;3.83;2.23;;;;;;;20.14;53.58;101522.78;4995033;28;20077;-67
2023/05/07 00:27:39;;;;;;;3.92;2.08;;;;;;;20.15;53.58;101521.81;4945155;28;20264;-69
2023/05/07 00:30:06;;;;;;;4.30;2.53;;;;;;;20.12;53.75;101519.41;4946579;28;20043;-66
2023/05/07 00:32:31;;;;;;;4.22;2.42;;;;;;;20.14;53.53;101524.56;4951225;28;20127;-66
2023/05/07 00:34:56;;;;;;;3.58;1.90;;;;;;;20.11;53.56;101518.56;4964219;28;20434;-66
2023/05/07 00:37:21;;;;;;;4.18;2.25;;;;;;;20.14;53.37;101522.78;4954497;28;20030;-66
2023/05/07 00:39:47;;;;;;;4.65;2.58;;;;;;;20.13;53.53;101521.09;4948528;28;20031;-67
2023/05/07 00:42:12;;;;;;;4.67;2.50;;;;;;;20.12;53.64;101519.41;4959033;28;20037;-67
2023/05/07 00:44:37;;;;;;;4.80;2.20;;;;;;;20.11;53.72;101515.09;4954274;28;20348;-67
2023/05/07 00:47:04;;;;;;;4.80;2.20;;;;;;;20.11;53.50;101517.75;4944427;28;20257;-67
2023/05/07 00:49:38;;;;;;;4.03;2.30;;;;;;;20.11;53.23;101512.44;4946202;28;20140;-65
2023/05/07 00:52:05;;;;;;;4.30;2.20;;;;;;;20.10;53.39;101501.00;4944496;28;20377;-67
2023/05/07 00:54:30;;;;;;;3.83;2.17;;;;;;;20.08;53.67;101502.94;4960410;28;20043;-66
2023/05/07 00:56:56;;;;;;;4.38;2.42;;;;;;;20.11;53.52;101509.81;4989052;28;20098;-66
2023/05/07 00:59:21;;;;;;;4.00;2.30;;;;;;;20.08;53.57;101510.88;4944212;28;20039;-66
2023/05/07 01:01:46;;;;;;;5.10;2.45;;;;;;;20.10;53.63;101510.75;4958362;28;20034;-66
2023/05/07 01:04:12;;;;;;;3.60;2.05;;;;;;;20.11;53.50;101512.44;4963451;28;20031;-67
2023/05/07 01:06:37;;;;;;;3.77;2.00;;;;;;;20.08;53.43;101510.03;4963438;28;20037;-67
2023/05/07 01:09:04;;;;;;;4.45;1.95;;;;;;;20.10;53.50;101508.94;4963545;28;20304;-66
2023/05/07 01:11:30;;;;;;;4.30;2.20;;;;;;;20.08;53.46;101513.53;4949633;28;20031;-67
2023/05/07 01:13:56;;;;;;;4.20;2.33;;;;;;;20.07;53.55;101508.34;4963250;28;20046;-66
2023/05/07 01:16:22;;;;;;;4.85;2.40;;;;;;;20.08;53.71;101504.75;4954649;28;20034;-67
2023/05/07 01:18:48;;;;;;;4.40;2.20;;;;;;;20.07;53.32;101500.41;4963070;28;20065;-66
2023/05/07 01:21:16;;;;;;;3.95;2.00;;;;;;;20.07;53.47;101506.53;4952460;28;20492;-68
2023/05/07 01:23:42;;;;;;;4.82;2.30;;;;;;;20.07;53.45;101497.78;4953178;28;20041;-68
2023/05/07 01:26:07;;;;;;;4.28;2.08;;;;;;;20.08;53.57;101494.16;4958841;28;20058;-67
2023/05/07 01:28:32;;;;;;;4.00;2.08;;;;;;;20.06;53.26;101491.66;4963146;28;20840;-67
2023/05/07 01:31:04;;;;;;;4.38;2.30;;;;;;;20.06;53.43;101475.78;4948586;28;20046;-68
2023/05/07 01:33:33;;;;;;;4.53;2.50;;;;;;;20.06;53.40;101478.41;4944027;28;20388;-69
2023/05/07 01:36:01;;;;;;;3.85;2.05;;;;;;;20.08;53.49;101475.66;4943790;28;20090;-68
2023/05/07 01:38:28;;;;;;;3.50;2.10;;;;;;;20.06;53.38;101474.91;4945791;28;20469;-67
2023/05/07 01:40:53;;;;;;;4.25;2.10;;;;;;;20.07;53.50;101479.25;4945062;28;20511;-66
2023/05/07 01:43:19;;;;;;;4.30;2.40;;;;;;;20.06;53.78;101480.19;4957370;28;20034;-67
2023/05/07 01:45:45;;;;;;;3.60;2.03;;;;;;;20.03;53.41;101478.66;4949520;28;20038;-66
2023/05/07 01:48:12;;;;;;;3.90;2.30;;;;;;;20.02;53.55;101471.66;4960841;28;20034;-67
2023/05/07 01:50:38;;;;;;;4.20;2.30;;;;;;;20.04;53.31;101469.75;4953275;28;20031;-66
2023/05/07 01:53:03;;;;;;;4.68;2.40;;;;;;;20.05;53.47;101476.72;4943427;28;20502;-67
2023/05/07 01:55:29;;;;;;;4.30;2.33;;;;;;;20.05;53.27;101473.25;4943439;28;20031;-67
2023/05/07 01:57:54;;;;;;;5.60;2.30;;;;;;;20.03;53.38;101461.94;4943510;28;20031;-66
2023/05/07 02:00:20;;;;;;;4.85;2.58;;;;;;;20.01;53.42;101462.06;4948836;28;20031;-66
2023/05/07 02:02:45;;;;;;;4.25;2.20;;;;;;;20.03;53.43;101467.25;4950232;28;20038;-66
2023/05/07 02:05:11;;;;;;;4.07;2.28;;;;;;;20.04;53.18;101463.63;4943251;28;20040;-67
2023/05/07 02:07:36;;;;;;;4.07;2.20;;;;;;;20.02;53.17;101466.38;4943378;28;20738;-66
2023/05/07 02:10:02;;;;;;;4.55;2.55;;;;;;;20.02;53.41;101463.72;4943563;28;20027;-66
2023/05/07 02:12:28;;;;;;;4.05;2.45;;;;;;;20.03;53.33;101467.25;4951194;28;20647;-66
2023/05/07 02:14:53;;;;;;;5.63;2.45;;;;;;;19.97;53.39;101459.78;4944633;28;20492;-66
2023/05/07 02:17:18;;;;;;;4.00;2.40;;;;;;;20.03;53.68;101476.00;4957971;28;20046;-66
2023/05/07 02:19:44;;;;;;;4.70;2.60;;;;;;;20.03;53.49;101473.38;4944642;28;20373;-67
2023/05/07 02:22:09;;;;;;;4.73;2.90;;;;;;;20.01;53.11;101471.78;4953438;28;20284;-67
2023/05/07 02:24:34;;;;;;;5.05;2.90;;;;;;;20.01;53.48;101474.44;4962074;28;20773;-67
2023/05/07 02:27:00;;;;;;;4.10;2.40;;;;;;;20.00;53.37;101478.91;4955965;28;20027;-66
2023/05/07 02:29:25;;;;;;;4.15;2.38;;;;;;;20.00;53.32;101478.06;4947846;28;20279;-66
2023/05/07 02:31:52;;;;;;;4.33;2.37;;;;;;;19.98;53.21;101475.53;4951758;28;20047;-66
2023/05/07 02:34:18;;;;;;;4.68;2.70;;;;;;;19.99;53.28;101484.31;4944876;28;20285;-68
2023/05/07 02:36:43;;;;;;;4.60;2.58;;;;;;;19.99;53.52;101484.31;4942925;28;20392;-67
2023/05/07 02:39:08;;;;;;;5.15;2.83;;;;;;;20.00;53.31;101480.72;4959907;28;20034;-66
2023/05/07 02:41:34;;;;;;;4.10;2.40;;;;;;;19.98;53.42;101475.53;4962191;28;20121;-66
2023/05/07 02:43:59;;;;;;;4.90;2.55;;;;;;;19.98;53.43;101475.53;4962697;28;20284;-67
2023/05/07 02:46:25;;;;;;;5.20;3.13;;;;;;;19.97;53.50;101470.38;4945941;28;20134;-68
2023/05/07 02:48:50;;;;;;;4.30;2.65;;;;;;;19.98;53.52;101477.31;4957293;28;20035;-67
2023/05/07 02:51:19;;;;;;;5.05;2.90;;;;;;;19.98;53.44;101487.91;4962430;28;20030;-66
2023/05/07 02:53:44;;;;;;;5.78;2.97;;;;;;;19.97;53.35;101488.88;4961697;28;20035;-66
2023/05/07 02:56:10;;;;;;;4.63;2.80;;;;;;;19.97;53.33;101492.38;4949239;28;20041;-65
2023/05/07 02:58:35;;;;;;;4.73;2.63;;;;;;;19.96;53.61;101485.38;4953422;28;20031;-66
2023/05/07 03:01:00;;;;;;;4.30;2.53;;;;;;;19.95;53.47;101483.72;4961987;28;20265;-66
2023/05/07 03:03:25;;;;;;;5.10;2.80;;;;;;;19.94;53.47;101471.44;4953203;28;20616;-65
2023/05/07 03:05:51;;;;;;;4.50;2.60;;;;;;;19.94;53.38;101471.44;4948347;28;20035;-67
2023/05/07 03:08:16;;;;;;;4.82;2.83;;;;;;;19.96;53.35;101472.16;4956959;28;20408;-67
2023/05/07 03:10:41;;;;;;;4.28;2.53;;;;;;;19.96;53.42;101464.22;4944751;28;20039;-67
2023/05/07 03:13:07;;;;;;;4.30;2.83;;;;;;;19.93;53.45;101470.63;4947850;28;20046;-68
2023/05/07 03:15:32;;;;;;;4.70;3.00;;;;;;;19.96;53.40;101480.09;4961827;28;20042;-67
2023/05/07 03:17:57;;;;;;;4.60;2.83;;;;;;;19.96;53.42;101472.16;4965307;28;20039;-67
2023/05/07 03:20:23;;;;;;;4.47;2.70;;;;;;;19.93;53.36;101470.63;4965401;28;20391;-65
2023/05/07 03:22:48;;;;;;;5.32;3.10;;;;;;;19.94;53.21;101469.63;4960534;28;20129;-67
2023/05/07 03:25:14;;;;;;;4.77;2.93;;;;;;;19.94;53.33;101464.34;4956899;28;20105;-66
2023/05/07 03:27:41;;;;;;;5.95;3.33;;;;;;;19.93;53.45;101460.03;4965455;28;20362;-66
2023/05/07 03:30:07;;;;;;;5.70;3.40;;;;;;;19.94;53.36;101466.16;4963908;28;20177;-67
2023/05/07 03:32:33;;;;;;;4.85;3.00;;;;;;;19.93;53.38;101462.69;4952417;28;21083;-67
2023/05/07 03:34:58;;;;;;;5.65;3.72;;;;;;;19.92;53.46;101455.69;4958590;28;20062;-67
2023/05/07 03:37:23;;;;;;;5.07;3.00;;;;;;;19.91;53.45;101459.28;4945747;28;20094;-67
2023/05/07 03:39:49;;;;;;;6.15;3.20;;;;;;;19.93;53.46;101457.38;4948610;28;20515;-67
2023/05/07 03:42:15;;;;;;;4.80;3.30;;;;;;;19.91;53.23;101455.81;4965149;28;20086;-66
2023/05/07 03:44:40;;;;;;;5.70;3.60;;;;;;;19.93;53.20;101457.38;4949228;28;20039;-67
2023/05/07 03:47:05;;;;;;;5.65;3.60;;;;;;;19.94;53.46;101463.50;4947829;28;20035;-68
2023/05/07 03:49:30;;;;;;;5.40;3.50;;;;;;;19.94;53.48;101460.88;4965108;28;20035;-67
2023/05/07 03:51:56;;;;;;;5.82;3.35;;;;;;;19.92;53.51;101458.34;4953307;28;20098;-67
2023/05/07 03:54:21;;;;;;;6.55;3.80;;;;;;;19.91;53.51;101461.94;4952826;28;20539;-67
2023/05/07 03:56:47;;;;;;;6.55;3.88;;;;;;;19.91;53.41;101464.59;4953147;28;20042;-66
2023/05/07 03:59:13;;;;;;;7.60;4.00;;;;;;;19.92;53.37;101463.63;4948573;28;20066;-67
2023/05/07 04:01:38;;;;;;;6.18;3.72;;;;;;;19.93;53.51;101475.03;4964591;28;20268;-66
2023/05/07 04:04:04;;;;;;;5.40;3.47;;;;;;;19.91;53.61;101475.16;4964962;28;20035;-67
2023/05/07 04:06:29;;;;;;;6.38;3.97;;;;;;;19.88;53.26;101472.75;4949871;28;20031;-66
2023/05/07 04:08:54;;;;;;;5.60;3.85;;;;;;;19.90;53.59;101484.09;4964059;28;20030;-66
2023/05/07 04:11:20;;;;;;;6.97;3.87;;;;;;;19.90;53.76;101483.22;4962500;28;20038;-67
2023/05/07 04:13:45;;;;;;;5.75;3.97;;;;;;;19.92;53.56;101489.25;4962003;28;20288;-67
2023/05/07 04:16:10;;;;;;;6.63;4.38;;;;;;;19.92;53.63;101490.09;4957044;28;20404;-68
2023/05/07 04:18:36;;;;;;;5.97;3.80;;;;;;;19.91;53.56;101496.31;4945577;28;20094;-67
2023/05/07 04:21:01;;;;;;;5.40;3.75;;;;;;;19.88;53.66;101485.97;4958539;28;20035;-67
2023/05/07 04:23:26;;;;;;;6.25;3.95;;;;;;;19.90;53.45;101488.50;4948487;28;20483;-67
2023/05/07 04:25:52;;;;;;;6.07;3.70;;;;;;;19.89;53.58;101490.31;4944949;28;20051;-67
2023/05/07 04:28:17;;;;;;;5.38;3.88;;;;;;;19.89;53.46;101492.97;4943902;28;20035;-67
2023/05/07 04:30:43;;;;;;;5.28;3.97;;;;;;;19.91;53.65;101496.31;4959911;28;20522;-67
2023/05/07 04:33:08;;;;;;;5.13;3.58;;;;;;;19.90;53.69;101494.66;4956192;28;20070;-67
2023/05/07 04:35:33;;;;;;;5.80;4.50;;;;;;;19.88;53.60;101483.34;4959105;28;20106;-66
2023/05/07 04:37:59;;;;;;;5.60;3.83;;;;;;;19.89;53.57;101485.03;4950346;28;20038;-67
2023/05/07 04:40:24;;;;;;;5.45;3.90;;;;;;;19.88;53.68;101482.50;4958169;28;20042;-68
2023/05/07 04:42:50;;;;;;;6.53;4.20;;;;;;;19.89;53.42;101485.03;4952423;28;20085;-67
2023/05/07 04:45:15;;;;;;;6.43;4.18;;;;;;;19.90;53.66;101491.16;4951270;28;20034;-67
2023/05/07 04:47:40;;;;;;;5.72;3.92;;;;;;;19.88;53.56;101485.16;4952473;28;20043;-66
2023/05/07 04:50:07;;;;;;;5.60;3.90;;;;;;;19.87;53.54;101492.25;4955419;28;20042;-68
2023/05/07 04:52:32;;;;;;;5.47;3.65;;;;;;;19.88;53.63;101491.28;4963186;28;20502;-67
2023/05/07 04:55:01;;;;;;;6.07;4.68;;;;;;;19.89;53.43;101494.78;4947024;28;20035;-67
2023/05/07 04:57:26;;;;;;;6.40;3.95;;;;;;;19.87;53.63;101502.00;4982732;28;20034;-66
2023/05/07 04:59:52;;;;;;;5.20;3.78;;;;;;;19.87;53.55;101504.66;4952394;28;20045;-66
2023/05/07 05:02:18;;;;;;;5.50;3.88;;;;;;;19.87;53.69;101508.13;4956651;28;20432;-66
2023/05/07 05:04:43;;;;;;;6.25;4.20;;;;;;;19.86;53.72;101505.59;4952175;28;20095;-68
2023/05/07 05:07:08;;;;;;;6.33;3.73;;;;;;;19.87;53.66;101504.66;4962302;28;20030;-66
2023/05/07 05:09:33;;;;;;;6.32;4.20;;;;;;;19.87;53.71;101512.59;4953001;28;21052;-67
2023/05/07 05:11:59;;;;;;;6.27;3.97;;;;;;;19.87;53.64;101508.13;4947720;28;20035;-66
2023/05/07 05:14:24;;;;;;;6.57;3.90;;;;;;;19.86;53.69;101498.50;4959861;28;20502;-68
2023/05/07 05:16:49;;;;;;;6.63;4.00;;;;;;;19.86;53.55;101508.25;4954935;28;20068;-66
2023/05/07 05:19:15;;;;;;;5.85;3.85;;;;;;;19.85;53.70;101504.78;4989174;28;20078;-67
2023/05/07 05:21:40;;;;;;;6.20;3.78;;;;;;;19.86;53.58;101503.78;4951270;28;20045;-68
2023/05/07 05:24:06;;;;;;;5.47;3.55;;;;;;;19.88;53.73;101506.31;4946264;28;20122;-67
2023/05/07 05:26:31;;;;;;;5.93;3.95;;;;;;;19.88;53.81;101511.59;4949758;28;20465;-67
2023/05/07 05:28:56;;;;;;;5.30;3.63;;;;;;;19.85;53.60;101514.47;4960327;28;20042;-68
2023/05/07 05:31:22;;;;;;;5.13;3.78;;;;;;;19.85;53.56;101514.47;4959823;28;20042;-68
2023/05/07 05:33:47;;;;;;;6.53;4.30;;;;;;;19.87;53.92;101517.88;4950809;28;20042;-67
2023/05/07 05:36:13;;;;;;;5.57;3.90;;;;;;;19.86;53.57;101519.66;4954951;28;20470;-67
2023/05/07 05:38:38;;;;;;;5.60;3.55;;;;;;;19.84;53.55;101518.13;4977009;28;20262;-66
2023/05/07 05:41:04;;;;;;;5.93;3.63;;;;;;;19.84;53.68;101523.41;4952924;28;20510;-67
2023/05/07 05:43:29;;;;;;;5.78;3.50;;;;;;;19.84;53.47;101518.94;4952469;28;20046;-67
2023/05/07 05:45:56;;;;;;;5.28;3.20;;;;;;;19.87;53.21;101525.81;4948012;28;20027;-67
2023/05/07 05:48:21;;;;;;;5.78;2.97;;;;;;;19.86;53.35;101535.53;4956215;28;20440;-67
2023/05/07 05:50:46;;;;;;;5.78;3.40;;;;;;;19.86;53.34;101530.25;4958864;28;20519;-67
2023/05/07 05:53:12;;;;;;;5.85;3.15;;;;;;;19.86;53.18;101535.53;4953057;28;20142;-67
2023/05/07 05:55:37;;;;;;;4.80;3.17;;;;;;;19.88;53.05;101527.47;4949211;28;20031;-69
2023/05/07 05:58:03;;;;;;;5.10;2.65;;;;;;;19.87;53.44;101524.00;4949879;28;20706;-66
2023/05/07 06:00:28;;;;;;;5.10;3.20;;;;;;;19.86;53.58;101524.94;4952736;28;20058;-67
2023/05/07 06:02:54;;;;;;;5.88;3.58;;;;;;;19.91;53.59;101527.22;4950173;28;20035;-68
2023/05/07 06:05:19;;;;;;;5.70;3.78;;;;;;;19.91;53.44;101529.88;4950565;28;20688;-66
2023/05/07 06:07:44;;;;;;;5.35;3.50;;;;;;;19.90;53.87;101528.19;4959325;28;20113;-66
2023/05/07 06:10:10;;;;;;;5.40;3.37;;;;;;;19.94;53.84;101534.94;4952821;28;20170;-66
2023/05/07 06:12:35;;;;;;;7.63;4.05;;;;;;;19.91;53.98;101530.72;4951278;28;20734;-66
2023/05/07 06:15:01;;;;;;;6.37;3.90;;;;;;;19.90;54.08;101526.41;4974282;28;20039;-67
2023/05/07 06:17:26;;;;;;;6.10;3.45;;;;;;;19.92;54.37;101523.63;4943929;28;20742;-65
2023/05/07 06:19:52;;;;;;;6.68;3.80;;;;;;;19.92;54.45;101528.94;4951453;28;20117;-66
2023/05/07 06:22:17;;;;;;;7.78;4.20;;;;;;;19.94;54.53;101532.28;4948024;28;20035;-68
2023/05/07 06:24:42;;;;;;;6.68;3.47;;;;;;;19.95;54.57;101533.97;4942880;28;20134;-67
2023/05/07 06:27:08;;;;;;;6.25;3.45;;;;;;;19.92;54.72;101521.81;4952056;28;20046;-66
2023/05/07 06:29:33;;;;;;;5.07;3.55;;;;;;;19.94;54.93;101527.00;4943360;28;20063;-68
2023/05/07 06:32:12;;;;;;;5.05;3.25;;;;;;;19.91;54.81;101530.72;4942122;28;20039;-67
2023/05/07 06:34:39;;;;;;;6.20;3.63;;;;;;;20.02;55.04;101529.88;4952044;28;20035;-69
2023/05/07 06:37:05;;;;;;;8.68;3.90;;;;;;;20.00;55.28;101530.97;4948658;28;20041;-69
2023/05/07 06:39:30;;;;;;;7.75;4.07;;;;;;;19.96;55.53;101533.00;4947746;28;20042;-68
2023/05/07 06:41:55;;;;;;;6.03;3.67;;;;;;;19.93;55.57;101530.59;4961796;28;20466;-68
2023/05/07 06:44:20;;;;;;;7.15;3.53;;;;;;;19.94;55.71;101535.75;4945878;28;20478;-67
2023/05/07 06:46:46;;;;;;;6.73;3.87;;;;;;;19.90;55.94;101537.00;4988088;28;20045;-71
2023/05/07 06:49:14;;;;;;;5.82;3.97;;;;;;;19.90;56.15;101552.84;4952001;28;20281;-71
2023/05/07 06:51:39;;;;;;;7.38;3.88;;;;;;;19.91;56.21;101548.41;4955382;28;20587;-69
2023/05/07 06:54:05;;;;;;;7.10;3.63;;;;;;;19.90;56.20;101546.69;4952593;28;20034;-69
2023/05/07 06:56:31;;;;;;;6.47;3.80;;;;;;;19.90;56.21;101552.00;4952480;28;20436;-71
2023/05/07 06:58:56;;;;;;;7.47;4.20;;;;;;;19.92;56.25;101555.38;4954783;28;20102;-72
2023/05/07 07:01:21;;;;;;;8.37;3.97;;;;;;;19.93;56.25;101554.41;4963703;28;20106;-73
2023/05/07 07:03:47;;;;;;;8.57;3.85;;;;;;;19.94;56.32;101561.38;4952375;28;20271;-73
2023/05/07 07:06:12;;;;;;;5.95;3.58;;;;;;;19.92;56.54;101550.94;4956684;28;21323;-76
2023/05/07 07:08:38;;;;;;;7.32;3.95;;;;;;;19.94;56.36;101556.09;4948933;28;20139;-72
2023/05/07 07:11:04;;;;;;;5.50;3.85;;;;;;;19.91;56.34;101551.88;4954830;28;20073;-72
2023/05/07 07:13:29;;;;;;;6.15;3.83;;;;;;;20.06;56.06;101559.56;4955700;28;20035;-71
2023/05/07 07:15:55;;;;;;;4.82;3.45;;;;;;;20.21;55.54;101555.72;4958116;28;20539;-71
2023/05/07 07:18:20;;;;;;;7.22;3.65;;;;;;;20.28;55.09;101564.88;4948622;28;20046;-71
2023/05/07 07:20:45;;;;;;;6.60;4.03;;;;;;;20.34;55.13;101558.25;4953537;28;20039;-72
2023/05/07 07:23:11;;;;;;;8.15;3.45;;;;;;;20.36;54.70;101559.00;4984742;28;20395;-70
2023/05/07 07:25:36;;;;;;;5.83;3.30;;;;;;;20.34;54.71;101563.53;4952438;28;20055;-70
2023/05/07 07:28:01;;;;;;;7.95;3.50;;;;;;;20.37;54.50;101562.47;4990070;28;20339;-69
2023/05/07 07:30:27;;;;;;;6.13;3.00;;;;;;;20.37;54.47;101570.41;4948764;28;20034;-68
2023/05/07 07:32:52;;;;;;;7.30;3.40;;;;;;;20.34;54.69;101563.53;4957518;28;20043;-69
2023/05/07 07:35:18;;;;;;;9.50;4.10;;;;;;;20.36;54.68;101563.41;4953203;28;20045;-70
2023/05/07 07:37:43;;;;;;;5.13;3.45;;;;;;;20.37;54.55;101571.25;4950833;28;20226;-70
2023/05/07 07:40:09;;;;;;;6.13;3.70;;;;;;;20.36;54.48;101568.72;4956599;28;20035;-71
2023/05/07 07:42:34;;;;;;;8.73;3.88;;;;;;;20.37;54.30;101578.34;4960210;28;20065;-69
2023/05/07 07:45:00;;;;;;;6.40;3.35;;;;;;;20.35;54.55;101572.34;4958979;28;20473;-69
2023/05/07 07:47:25;;;;;;;6.72;3.53;;;;;;;20.33;54.73;101569.81;4957871;28;20799;-68
2023/05/07 07:49:50;;;;;;;8.27;3.83;;;;;;;20.32;54.66;101573.41;4958348;28;20038;-70
2023/05/07 07:52:15;;;;;;;7.20;3.50;;;;;;;20.22;54.61;101572.44;4982412;28;20694;-69
2023/05/07 07:54:41;;;;;;;5.38;3.42;;;;;;;20.09;55.36;101568.13;4963205;28;20124;-68
2023/05/07 07:57:06;;;;;;;6.38;3.22;;;;;;;20.05;55.65;101571.97;4956019;28;20038;-71
2023/05/07 07:59:31;;;;;;;5.90;3.80;;;;;;;20.02;56.03;101568.72;4958884;28;20027;-71
2023/05/07 08:01:57;;;;;;;5.45;4.15;;;;;;;19.97;55.86;101565.59;4958048;28;20726;-67
2023/05/07 08:04:22;;;;;;;8.50;4.32;;;;;;;20.02;56.39;101574.84;4957233;28;20043;-68
2023/05/07 08:06:48;;;;;;;12.15;3.97;;;;;;;20.00;56.62;101570.66;4951947;28;20042;-65
2023/05/07 08:09:13;;;;;;;8.73;4.25;;;;;;;20.01;57.39;101567.03;4953901;28;20193;-69
2023/05/07 08:11:39;;;;;;;11.68;4.13;;;;;;;20.04;57.56;101567.63;4954126;28;20997;-69
2023/05/07 08:14:05;;;;;;;6.95;3.70;;;;;;;20.08;57.08;101577.03;4952983;28;20031;-69
2023/05/07 08:16:30;;;;;;;9.57;3.70;;;;;;;20.10;57.08;101574.25;4958556;28;20038;-70
2023/05/07 08:18:55;;;;;;;7.63;3.70;;;;;;;20.15;56.95;101572.09;4956324;28;20117;-69
2023/05/07 08:21:22;;;;;;;6.35;3.55;;;;;;;20.14;57.01;101580.16;4989313;28;20050;-70
2023/05/07 08:23:48;;;;;;;8.88;3.90;;;;;;;20.15;57.03;101582.69;4957665;28;20498;-71
2023/05/07 08:26:13;;;;;;;8.35;4.03;;;;;;;20.12;57.19;101577.63;4953525;28;20056;-69
2023/05/07 08:28:39;;;;;;;8.37;3.87;;;;;;;20.19;57.04;101570.06;4955275;28;20041;-68
2023/05/07 08:31:05;;;;;;;6.78;3.60;;;;;;;20.36;56.39;101579.31;4958515;28;20265;-68
2023/05/07 08:33:30;;;;;;;6.53;3.53;;;;;;;20.43;56.20;101577.88;4951807;28;20047;-69
2023/05/07 08:35:56;;;;;;;7.20;4.10;;;;;;;20.46;56.29;101583.75;4947172;28;20041;-65
2023/05/07 08:38:21;;;;;;;7.15;3.40;;;;;;;20.48;55.82;101587.09;4960806;28;21077;-66
2023/05/07 08:40:47;;;;;;;8.10;3.45;;;;;;;20.40;55.91;101591.34;4946537;28;20471;-69
2023/05/07 08:43:13;;;;;;;8.00;3.35;;;;;;;20.27;55.88;101586.19;4950208;28;20527;-71
2023/05/07 08:45:40;;;;;;;10.48;3.42;;;;;;;20.22;55.82;101588.31;4947588;28;20042;-71
2023/05/07 08:48:10;;;;;;;6.80;3.08;;;;;;;20.13;56.04;101581.13;4951561;28;20034;-68
2023/05/07 08:50:36;;;;;;;9.73;3.00;;;;;;;20.14;55.88;101588.09;4962935;28;20380;-69
2023/05/07 08:53:04;;;;;;;6.85;3.30;;;;;;;20.11;55.80;101584.72;4957264;28;20042;-69
2023/05/07 08:55:30;;;;;;;8.48;3.75;;;;;;;20.11;56.05;101587.38;4961181;28;20737;-68
2023/05/07 08:57:55;;;;;;;5.18;2.88;;;;;;;20.09;56.46;101586.66;4949310;28;20035;-69
2023/05/07 09:00:20;;;;;;;8.20;3.40;;;;;;;20.09;56.04;101586.66;4956122;28;20194;-67
2023/05/07 09:02:46;;;;;;;6.53;3.00;;;;;;;20.10;55.84;101590.97;4960064;28;20085;-68
2023/05/07 09:05:11;;;;;;;5.78;3.28;;;;;;;20.13;56.04;101594.38;4943906;28;20525;-70
2023/05/07 09:07:36;;;;;;;6.82;3.45;;;;;;;20.16;55.71;101594.13;4949224;28;20050;-67
2023/05/07 09:10:05;;;;;;;7.00;3.35;;;;;;;20.31;55.57;101598.19;4945879;28;20050;-67
2023/05/07 09:12:30;;;;;;;6.72;3.13;;;;;;;20.44;55.13;101598.06;4945319;28;20122;-67
2023/05/07 09:14:56;;;;;;;6.63;3.10;;;;;;;20.53;54.93;101604.44;4950794;28;20469;-67
2023/05/07 09:17:21;;;;;;;5.70;3.30;;;;;;;20.54;54.96;101598.19;4948739;28;20439;-67
2023/05/07 09:19:47;;;;;;;6.15;3.08;;;;;;;20.56;54.95;101596.25;4956317;28;20042;-69
2023/05/07 09:22:12;;;;;;;8.43;3.40;;;;;;;20.55;54.94;101598.03;4946076;28;20035;-68
2023/05/07 09:24:38;;;;;;;7.63;3.28;;;;;;;20.55;55.05;101599.88;4948962;28;20043;-68
2023/05/07 09:27:08;;;;;;;6.43;3.58;;;;;;;20.52;55.14;101606.25;4944776;28;20039;-71
2023/05/07 09:29:36;;;;;;;9.80;3.92;;;;;;;20.55;55.60;101606.00;4951495;28;20085;-71
2023/05/07 09:32:03;;;;;;;12.95;3.90;;;;;;;20.51;55.94;101601.09;4943882;28;20039;-70
2023/05/07 09:34:30;;;;;;;8.85;3.30;;;;;;;20.46;56.40;101597.00;4950589;28;20090;-65
2023/05/07 09:36:56;;;;;;;10.43;3.40;;;;;;;20.50;56.28;101602.88;4950149;28;20066;-68
2023/05/07 09:39:22;;;;;;;10.38;3.90;;;;;;;20.53;56.36;101599.16;4955475;28;20038;-69
2023/05/07 09:41:49;;;;;;;12.73;3.38;;;;;;;20.53;56.61;101604.44;4944731;28;20031;-70
2023/05/07 09:44:15;;;;;;;17.20;4.28;;;;;;;20.53;56.62;101604.44;4958641;28;20687;-67
2023/05/07 09:46:42;;;;;;;18.10;3.60;;;;;;;20.51;57.21;101603.75;4943499;28;20042;-67
2023/05/07 09:49:13;;;;;;;15.80;4.38;;;;;;;20.53;57.44;101597.34;4946121;28;20693;-67
2023/05/07 09:51:50;;;;;;;12.80;3.70;;;;;;;20.55;57.93;101603.34;4944754;28;20456;-67
2023/05/07 09:54:17;;;;;;;14.77;3.50;;;;;;;20.57;58.01;101605.88;4944589;28;20114;-66
2023/05/07 09:56:45;;;;;;;12.82;3.63;;;;;;;20.56;58.13;101604.22;4950661;28;20039;-65
2023/05/07 09:59:13;;;;;;;13.25;3.97;;;;;;;20.56;57.93;101602.38;4959468;28;20078;-69
2023/05/07 10:01:41;;;;;;;12.90;4.40;;;;;;;20.55;58.56;101606.00;4957341;28;20066;-68
2023/05/07 10:04:10;;;;;;;14.82;3.75;;;;;;;20.55;58.58;101605.16;4955816;28;20381;-66
2023/05/07 10:06:36;;;;;;;11.43;3.72;;;;;;;20.55;58.59;101607.81;4943129;28;20460;-66
2023/05/07 10:09:02;;;;;;;10.07;3.22;;;;;;;20.55;58.96;101607.81;4943304;28;20090;-67
2023/05/07 10:11:28;;;;;;;9.13;3.45;;;;;;;20.56;58.97;101604.22;4956639;28;20038;-67
2023/05/07 10:13:53;;;;;;;11.75;3.33;;;;;;;20.56;59.34;101598.91;4962376;28;20039;-66
2023/05/07 10:16:19;;;;;;;11.07;3.58;;;;;;;20.58;59.42;101604.91;4952962;28;20047;-67
2023/05/07 10:18:46;;;;;;;10.25;3.40;;;;;;;20.59;59.24;101607.44;4950237;28;20039;-67
2023/05/07 10:21:20;;;;;;;8.43;3.38;;;;;;;20.60;59.50;101608.28;4961975;28;20031;-66
2023/05/07 10:23:49;;;;;;;9.93;3.67;;;;;;;20.61;59.38;101607.31;4958753;28;20069;-68
2023/05/07 10:26:17;;;;;;;8.57;3.10;;;;;;;20.59;59.38;101601.31;4950518;28;20186;-68
2023/05/07 10:28:47;;;;;;;9.65;3.08;;;;;;;20.60;59.65;101606.50;4962268;28;20039;-69
2023/05/07 10:31:31;;;;;;;7.97;3.40;;;;;;;20.62;59.92;101603.72;4953222;28;20031;-67
2023/05/07 10:33:57;;;;;;;12.20;3.67;;;;;;;20.61;59.68;101600.22;4947459;28;20998;-69
2023/05/07 10:36:24;;;;;;;13.57;3.95;;;;;;;20.63;59.94;101605.38;4948135;28;20499;-68
2023/05/07 10:38:50;;;;;;;14.80;3.67;;;;;;;20.62;59.84;101599.25;4948477;28;20035;-70
2023/05/07 10:41:16;;;;;;;8.63;3.70;;;;;;;20.63;59.90;101600.94;4947308;28;20490;-66
2023/05/07 10:43:44;;;;;;;13.13;3.60;;;;;;;20.65;59.94;101601.69;4958922;28;20424;-67
2023/05/07 10:46:16;;;;;;;13.07;3.50;;;;;;;20.67;60.25;101606.03;4965616;28;20093;-68
2023/05/07 10:49:04;;;;;;;12.52;3.30;;;;;;;20.69;60.24;101604.09;4948111;28;20045;-66
2023/05/07 10:51:31;;;;;;;15.18;4.45;;;;;;;20.68;60.08;101605.91;4946675;28;20137;-67
2023/05/07 10:54:11;;;;;;;11.90;3.20;;;;;;;20.70;60.87;101611.91;4957683;28;20163;-68
2023/05/07 10:56:38;;;;;;;11.15;3.50;;;;;;;20.63;60.62;101595.66;4946529;28;20031;-66
2023/05/07 10:59:27;;;;;;;12.30;4.07;;;;;;;20.73;60.50;101611.69;4954951;28;20492;-65
2023/05/07 11:01:57;;;;;;;6.88;3.95;;;;;;;20.75;61.09;101611.56;4997125;28;20498;-67
2023/05/07 11:04:27;;;;;;;10.80;3.40;;;;;;;20.76;60.86;101613.22;4955315;28;20038;-69
2023/05/07 11:07:12;;;;;;;12.52;3.40;;;;;;;20.74;60.99;101613.34;4948876;28;21107;-67
2023/05/07 11:09:53;;;;;;;15.23;3.88;;;;;;;20.75;60.93;101612.38;4958380;28;20471;-68
2023/05/07 11:12:37;;;;;;;11.27;3.20;;;;;;;20.77;61.21;101618.38;4965600;28;20035;-68
2023/05/07 11:15:08;;;;;;;15.25;3.85;;;;;;;20.77;61.10;101614.91;4955057;28;20547;-65
2023/05/07 11:17:34;;;;;;;10.85;3.08;;;;;;;20.76;61.10;101616.72;4957120;28;20141;-68
2023/05/07 11:20:01;;;;;;;16.55;3.22;;;;;;;20.78;61.24;101609.50;4962174;28;20547;-70